Ferry Katsuragi — JI3611 — position and weather

sailwx.info

Track history (hours):
 
Tides and Currents Weather Stations Pressure Air Temp Water Temp Dewpoint Dewpoint Depression Visibility Wind Speed Wind Dir Waves Ship Positions

Ferry Katsuragi

Last reported at 2014-Dec-22 16:34 UTC. Time now 2014-Dec-22 17:03 UTC.
Position N 34°13' E 135°09'.

Length 108 m; draft 4 m.

Type: Passenger vessel. MMSI: 431301245.

Date/timePositionNaut miles runAvg speedWind from/ knotsBaromVisibWave heightAir tempDewpointWater temp
2014-Dec-22 16:34N 34°13' E 135°09'0 0.0
2014-Dec-22 15:34N 34°13' E 135°09'6 6.4
2014-Dec-22 14:33N 34°11' E 135°01'11 3.5
2014-Dec-22 11:28N 34°07' E 134°49'1414.9
2014-Dec-22 10:33N 34°12' E 135°04'4 3.7
2014-Dec-22 09:33N 34°13' E 135°08'23 7.0
2014-Dec-22 06:19N 34°05' E 134°43'1114.0
2014-Dec-22 05:33N 34°08' E 134°55'1212.1
2014-Dec-22 04:33N 34°13' E 135°09'6 6.4
2014-Dec-22 03:33N 34°10' E 135°02'5 1.6
2014-Dec-22 00:20N 34°09' E 134°55'1114.6
2014-Dec-21 23:33N 34°13' E 135°08'2 1.8
2014-Dec-21 22:33N 34°13' E 135°06'18 5.5
2014-Dec-21 19:11N 34°05' E 134°46'913.8
2014-Dec-21 18:32N 34°09' E 134°55'1211.9
2014-Dec-21 17:33N 34°13' E 135°09'0 0.0
2014-Dec-21 16:33N 34°13' E 135°09'0 0.0
2014-Dec-21 15:33N 34°13' E 135°09'7 6.9
2014-Dec-21 14:33N 34°10' E 135°01'10 3.2
2014-Dec-21 11:25N 34°07' E 134°49'1314.9
2014-Dec-21 10:33N 34°12' E 135°04'4 4.1
2014-Dec-21 09:33N 34°13' E 135°09'20 5.9
2014-Dec-21 06:07N 34°06' E 134°46'914.1
2014-Dec-21 05:27N 34°09' E 134°56'1112.1
2014-Dec-21 04:34N 34°13' E 135°09'6 6.4
2014-Dec-21 03:33N 34°10' E 135°02'17 6.7
2014-Dec-21 01:04N 34°04' E 134°43'915.0
2014-Dec-21 00:30N 34°08' E 134°52'1414.8
2014-Dec-20 23:33N 34°13' E 135°08'3 2.7
2014-Dec-20 22:33N 34°12' E 135°05'17 5.0
2014-Dec-20 19:12N 34°06' E 134°46'1013.5
2014-Dec-20 18:26N 34°10' E 134°58'1011.1
2014-Dec-20 17:33N 34°13' E 135°09'0 0.0
2014-Dec-20 16:33N 34°13' E 135°09'0 0.0
2014-Dec-20 15:33N 34°13' E 135°09'7 6.8
2014-Dec-20 14:33N 34°11' E 135°01'3 0.8
2014-Dec-20 10:33N 34°12' E 135°04'4 3.7
2014-Dec-20 09:34N 34°13' E 135°09'20 5.8
2014-Dec-20 06:07N 34°06' E 134°46'814.3
2014-Dec-20 05:33N 34°08' E 134°56'1211.8
2014-Dec-20 04:33N 34°13' E 135°09'9 1.9
2014-Dec-20 00:08N 34°11' E 134°59'814.2
2014-Dec-19 23:33N 34°13' E 135°08'3 2.9
2014-Dec-19 22:34N 34°13' E 135°05'7 1.7
2014-Dec-19 18:25N 34°11' E 134°57'1011.8
2014-Dec-19 17:33N 34°13' E 135°09'0 0.0
2014-Dec-19 16:33N 34°13' E 135°09'0 0.0
2014-Dec-19 15:33N 34°13' E 135°09'7 7.3
2014-Dec-19 14:33N 34°11' E 135°00'5 1.6
2014-Dec-19 11:07N 34°08' E 134°55'915.6
2014-Dec-19 10:33N 34°12' E 135°04'4 3.5
2014-Dec-19 09:33N 34°13' E 135°08'9 2.1
2014-Dec-19 05:22N 34°11' E 134°58'911.3
2014-Dec-19 04:33N 34°13' E 135°09'7 6.5
2014-Dec-19 03:34N 34°12' E 135°01'19 8.1
2014-Dec-19 01:13N 34°04' E 134°40'1215.8
2014-Dec-19 00:26N 34°09' E 134°54'1314.8
2014-Dec-18 23:33N 34°13' E 135°08'2 2.4
2014-Dec-18 22:33N 34°13' E 135°06'20 6.2
2014-Dec-18 19:16N 34°05' E 134°43'1114.6
2014-Dec-18 18:32N 34°09' E 134°55'1212.3
2014-Dec-18 17:33N 34°13' E 135°09'0 0.0
2014-Dec-18 16:33N 34°13' E 135°09'0 0.0
2014-Dec-18 15:33N 34°13' E 135°09'6 5.9
2014-Dec-18 14:33N 34°11' E 135°02'11 3.5
2014-Dec-18 11:27N 34°07' E 134°49'1314.5
2014-Dec-18 10:33N 34°12' E 135°04'4 3.8
2014-Dec-18 09:33N 34°13' E 135°09'11 2.6
2014-Dec-18 05:29N 34°10' E 134°56'1111.6
2014-Dec-18 04:33N 34°13' E 135°09'6 6.4
2014-Dec-18 03:33N 34°11' E 135°01'5 1.6
2014-Dec-18 00:20N 34°09' E 134°56'1214.8
2014-Dec-17 23:34N 34°13' E 135°09'2 2.2
2014-Dec-17 22:33N 34°13' E 135°06'18 5.3
2014-Dec-17 19:12N 34°06' E 134°46'1113.5
2014-Dec-17 18:24N 34°10' E 134°58'911.0
2014-Dec-17 17:33N 34°13' E 135°09'0 0.0
2014-Dec-17 16:33N 34°13' E 135°09'0 0.0
2014-Dec-17 15:33N 34°13' E 135°09'7 6.6
2014-Dec-17 14:33N 34°11' E 135°01'6 1.8
2014-Dec-17 11:10N 34°09' E 134°54'914.5
2014-Dec-17 10:33N 34°12' E 135°04'4 3.7
2014-Dec-17 09:33N 34°13' E 135°09'20 5.9
2014-Dec-17 06:09N 34°06' E 134°46'1014.3
2014-Dec-17 05:28N 34°09' E 134°57'1111.4
2014-Dec-17 04:33N 34°13' E 135°09'6 5.9
2014-Dec-17 03:33N 34°11' E 135°02'8 2.6
2014-Dec-17 00:29N 34°09' E 134°53'1414.7
2014-Dec-16 23:33N 34°13' E 135°08'2 1.8
2014-Dec-16 22:33N 34°13' E 135°06'18 5.3
2014-Dec-16 19:11N 34°06' E 134°46'1014.7
2014-Dec-16 18:30N 34°10' E 134°58'1010.3
2014-Dec-16 17:33N 34°13' E 135°09'0 0.0
2014-Dec-16 16:33N 34°13' E 135°09'0 0.0
2014-Dec-16 15:33N 34°13' E 135°09'7 6.6
2014-Dec-16 14:34N 34°10' E 135°01'11 3.7
2014-Dec-16 11:30N 34°07' E 134°48'1414.9
2014-Dec-16 10:33N 34°12' E 135°04'4 3.7
2014-Dec-16 09:34N 34°13' E 135°08'10 2.5
2014-Dec-16 05:29N 34°09' E 134°57'1111.3
2014-Dec-16 04:33N 34°13' E 135°09'7 7.0
2014-Dec-16 03:32N 34°11' E 135°00'2 0.5
2014-Dec-16 00:07N 34°10' E 134°59'814.8
2014-Dec-15 23:33N 34°13' E 135°09'2 2.4
2014-Dec-15 22:33N 34°13' E 135°06'17 4.9
2014-Dec-15 19:07N 34°07' E 134°47'813.3
2014-Dec-15 18:33N 34°09' E 134°55'1211.7
2014-Dec-15 17:33N 34°13' E 135°09'0 0.0
2014-Dec-15 16:33N 34°13' E 135°09'0 0.0
2014-Dec-15 15:33N 34°13' E 135°09'7 7.1
2014-Dec-15 14:33N 34°11' E 135°00'10 3.5
2014-Dec-15 11:31N 34°07' E 134°49'1414.6
2014-Dec-15 10:33N 34°12' E 135°04'4 3.5
2014-Dec-15 09:34N 34°13' E 135°08'11 2.7
2014-Dec-15 05:31N 34°10' E 134°56'1111.5
2014-Dec-15 04:33N 34°13' E 135°09'6 6.2
2014-Dec-15 03:33N 34°11' E 135°01'5 1.5
2014-Dec-15 00:17N 34°09' E 134°56'1114.9
2014-Dec-14 23:33N 34°13' E 135°08'1 1.0
2014-Dec-14 22:33N 34°13' E 135°07'18 5.1
2014-Dec-14 19:04N 34°07' E 134°47'713.9
2014-Dec-14 18:33N 34°09' E 134°55'1212.1
2014-Dec-14 17:33N 34°13' E 135°09'0 0.0
2014-Dec-14 16:33N 34°13' E 135°09'0 0.0
2014-Dec-14 15:33N 34°13' E 135°09'6 5.8
2014-Dec-14 14:33N 34°12' E 135°02'2 0.5
2014-Dec-14 10:33N 34°12' E 135°04'4 3.8
2014-Dec-14 09:33N 34°13' E 135°09'21 6.2
2014-Dec-14 06:10N 34°05' E 134°45'1014.4
2014-Dec-14 05:27N 34°09' E 134°57'1111.9
2014-Dec-14 04:34N 34°13' E 135°09'6 6.2
2014-Dec-14 03:33N 34°10' E 135°02'4 1.3
2014-Dec-14 00:14N 34°09' E 134°57'1014.8
2014-Dec-13 23:33N 34°13' E 135°08'3 2.7
2014-Dec-13 22:33N 34°12' E 135°05'16 4.6
2014-Dec-13 19:07N 34°06' E 134°47'813.3
2014-Dec-13 18:29N 34°09' E 134°56'1111.6
2014-Dec-13 17:33N 34°13' E 135°09'0 0.0
2014-Dec-13 16:33N 34°13' E 135°09'0 0.0
2014-Dec-13 15:33N 34°13' E 135°09'7 6.7
2014-Dec-13 14:33N 34°11' E 135°01'12 3.8
2014-Dec-13 11:33N 34°07' E 134°48'1514.9
2014-Dec-13 10:33N 34°12' E 135°05'3 3.5
2014-Dec-13 09:34N 34°13' E 135°09'20 6.0
2014-Dec-13 06:12N 34°06' E 134°46'1013.5
2014-Dec-13 05:26N 34°10' E 134°57'1011.4
2014-Dec-13 04:34N 34°13' E 135°09'6 5.9
2014-Dec-13 03:33N 34°11' E 135°02'7 2.3
2014-Dec-13 00:24N 34°08' E 134°54'1315.1
2014-Dec-12 23:33N 34°13' E 135°08'2 2.3
2014-Dec-12 22:33N 34°12' E 135°05'19 5.6
2014-Dec-12 19:11N 34°05' E 134°45'1014.3
2014-Dec-12 18:28N 34°09' E 134°56'1112.3
2014-Dec-12 17:33N 34°13' E 135°09'  
Track history (hours):
 
Tides and Currents Weather Stations Pressure Air Temp Water Temp Dewpoint Dewpoint Depression Visibility Wind Speed Wind Dir Waves Ship Positions

Ferry Katsuragi

Last reported at 2014-Dec-22 16:34 UTC. Time now 2014-Dec-22 17:03 UTC.
Position N 34°13' E 135°09'.

Length 108 m; draft 4 m.

Type: Passenger vessel. MMSI: 431301245.

Date/timePositionNaut miles runAvg speedWind from/ knotsBaromVisibWave heightAir tempDewpointWater temp
2014-Dec-22 16:34N 34°13' E 135°09'0 0.0
2014-Dec-22 15:34N 34°13' E 135°09'6 6.4
2014-Dec-22 14:33N 34°11' E 135°01'11 3.5
2014-Dec-22 11:28N 34°07' E 134°49'1414.9
2014-Dec-22 10:33N 34°12' E 135°04'4 3.7
2014-Dec-22 09:33N 34°13' E 135°08'23 7.0
2014-Dec-22 06:19N 34°05' E 134°43'1114.0
2014-Dec-22 05:33N 34°08' E 134°55'1212.1
2014-Dec-22 04:33N 34°13' E 135°09'6 6.4
2014-Dec-22 03:33N 34°10' E 135°02'5 1.6
2014-Dec-22 00:20N 34°09' E 134°55'1114.6
2014-Dec-21 23:33N 34°13' E 135°08'2 1.8
2014-Dec-21 22:33N 34°13' E 135°06'18 5.5
2014-Dec-21 19:11N 34°05' E 134°46'913.8
2014-Dec-21 18:32N 34°09' E 134°55'1211.9
2014-Dec-21 17:33N 34°13' E 135°09'0 0.0
2014-Dec-21 16:33N 34°13' E 135°09'0 0.0
2014-Dec-21 15:33N 34°13' E 135°09'7 6.9
2014-Dec-21 14:33N 34°10' E 135°01'10 3.2
2014-Dec-21 11:25N 34°07' E 134°49'1314.9
2014-Dec-21 10:33N 34°12' E 135°04'4 4.1
2014-Dec-21 09:33N 34°13' E 135°09'20 5.9
2014-Dec-21 06:07N 34°06' E 134°46'914.1
2014-Dec-21 05:27N 34°09' E 134°56'1112.1
2014-Dec-21 04:34N 34°13' E 135°09'6 6.4
2014-Dec-21 03:33N 34°10' E 135°02'17 6.7
2014-Dec-21 01:04N 34°04' E 134°43'915.0
2014-Dec-21 00:30N 34°08' E 134°52'1414.8
2014-Dec-20 23:33N 34°13' E 135°08'3 2.7
2014-Dec-20 22:33N 34°12' E 135°05'17 5.0
2014-Dec-20 19:12N 34°06' E 134°46'1013.5
2014-Dec-20 18:26N 34°10' E 134°58'1011.1
2014-Dec-20 17:33N 34°13' E 135°09'0 0.0
2014-Dec-20 16:33N 34°13' E 135°09'0 0.0
2014-Dec-20 15:33N 34°13' E 135°09'7 6.8
2014-Dec-20 14:33N 34°11' E 135°01'3 0.8
2014-Dec-20 10:33N 34°12' E 135°04'4 3.7
2014-Dec-20 09:34N 34°13' E 135°09'20 5.8
2014-Dec-20 06:07N 34°06' E 134°46'814.3
2014-Dec-20 05:33N 34°08' E 134°56'1211.8
2014-Dec-20 04:33N 34°13' E 135°09'9 1.9
2014-Dec-20 00:08N 34°11' E 134°59'814.2
2014-Dec-19 23:33N 34°13' E 135°08'3 2.9
2014-Dec-19 22:34N 34°13' E 135°05'7 1.7
2014-Dec-19 18:25N 34°11' E 134°57'1011.8
2014-Dec-19 17:33N 34°13' E 135°09'0 0.0
2014-Dec-19 16:33N 34°13' E 135°09'0 0.0
2014-Dec-19 15:33N 34°13' E 135°09'7 7.3
2014-Dec-19 14:33N 34°11' E 135°00'5 1.6
2014-Dec-19 11:07N 34°08' E 134°55'915.6
2014-Dec-19 10:33N 34°12' E 135°04'4 3.5
2014-Dec-19 09:33N 34°13' E 135°08'9 2.1
2014-Dec-19 05:22N 34°11' E 134°58'911.3
2014-Dec-19 04:33N 34°13' E 135°09'7 6.5
2014-Dec-19 03:34N 34°12' E 135°01'19 8.1
2014-Dec-19 01:13N 34°04' E 134°40'1215.8
2014-Dec-19 00:26N 34°09' E 134°54'1314.8
2014-Dec-18 23:33N 34°13' E 135°08'2 2.4
2014-Dec-18 22:33N 34°13' E 135°06'20 6.2
2014-Dec-18 19:16N 34°05' E 134°43'1114.6
2014-Dec-18 18:32N 34°09' E 134°55'1212.3
2014-Dec-18 17:33N 34°13' E 135°09'0 0.0
2014-Dec-18 16:33N 34°13' E 135°09'0 0.0
2014-Dec-18 15:33N 34°13' E 135°09'6 5.9
2014-Dec-18 14:33N 34°11' E 135°02'11 3.5
2014-Dec-18 11:27N 34°07' E 134°49'1314.5
2014-Dec-18 10:33N 34°12' E 135°04'4 3.8
2014-Dec-18 09:33N 34°13' E 135°09'11 2.6
2014-Dec-18 05:29N 34°10' E 134°56'1111.6
2014-Dec-18 04:33N 34°13' E 135°09'6 6.4
2014-Dec-18 03:33N 34°11' E 135°01'5 1.6
2014-Dec-18 00:20N 34°09' E 134°56'1214.8
2014-Dec-17 23:34N 34°13' E 135°09'2 2.2
2014-Dec-17 22:33N 34°13' E 135°06'18 5.3
2014-Dec-17 19:12N 34°06' E 134°46'1113.5
2014-Dec-17 18:24N 34°10' E 134°58'911.0
2014-Dec-17 17:33N 34°13' E 135°09'0 0.0
2014-Dec-17 16:33N 34°13' E 135°09'0 0.0
2014-Dec-17 15:33N 34°13' E 135°09'7 6.6
2014-Dec-17 14:33N 34°11' E 135°01'6 1.8
2014-Dec-17 11:10N 34°09' E 134°54'914.5
2014-Dec-17 10:33N 34°12' E 135°04'4 3.7
2014-Dec-17 09:33N 34°13' E 135°09'20 5.9
2014-Dec-17 06:09N 34°06' E 134°46'1014.3
2014-Dec-17 05:28N 34°09' E 134°57'1111.4
2014-Dec-17 04:33N 34°13' E 135°09'6 5.9
2014-Dec-17 03:33N 34°11' E 135°02'8 2.6
2014-Dec-17 00:29N 34°09' E 134°53'1414.7
2014-Dec-16 23:33N 34°13' E 135°08'2 1.8
2014-Dec-16 22:33N 34°13' E 135°06'18 5.3
2014-Dec-16 19:11N 34°06' E 134°46'1014.7
2014-Dec-16 18:30N 34°10' E 134°58'1010.3
2014-Dec-16 17:33N 34°13' E 135°09'0 0.0
2014-Dec-16 16:33N 34°13' E 135°09'0 0.0
2014-Dec-16 15:33N 34°13' E 135°09'7 6.6
2014-Dec-16 14:34N 34°10' E 135°01'11 3.7
2014-Dec-16 11:30N 34°07' E 134°48'1414.9
2014-Dec-16 10:33N 34°12' E 135°04'4 3.7
2014-Dec-16 09:34N 34°13' E 135°08'10 2.5
2014-Dec-16 05:29N 34°09' E 134°57'1111.3
2014-Dec-16 04:33N 34°13' E 135°09'7 7.0
2014-Dec-16 03:32N 34°11' E 135°00'2 0.5
2014-Dec-16 00:07N 34°10' E 134°59'814.8
2014-Dec-15 23:33N 34°13' E 135°09'2 2.4
2014-Dec-15 22:33N 34°13' E 135°06'17 4.9
2014-Dec-15 19:07N 34°07' E 134°47'813.3
2014-Dec-15 18:33N 34°09' E 134°55'1211.7
2014-Dec-15 17:33N 34°13' E 135°09'0 0.0
2014-Dec-15 16:33N 34°13' E 135°09'0 0.0
2014-Dec-15 15:33N 34°13' E 135°09'7 7.1
2014-Dec-15 14:33N 34°11' E 135°00'10 3.5
2014-Dec-15 11:31N 34°07' E 134°49'1414.6
2014-Dec-15 10:33N 34°12' E 135°04'4 3.5
2014-Dec-15 09:34N 34°13' E 135°08'11 2.7
2014-Dec-15 05:31N 34°10' E 134°56'1111.5
2014-Dec-15 04:33N 34°13' E 135°09'6 6.2
2014-Dec-15 03:33N 34°11' E 135°01'5 1.5
2014-Dec-15 00:17N 34°09' E 134°56'1114.9
2014-Dec-14 23:33N 34°13' E 135°08'1 1.0
2014-Dec-14 22:33N 34°13' E 135°07'18 5.1
2014-Dec-14 19:04N 34°07' E 134°47'713.9
2014-Dec-14 18:33N 34°09' E 134°55'1212.1
2014-Dec-14 17:33N 34°13' E 135°09'0 0.0
2014-Dec-14 16:33N 34°13' E 135°09'0 0.0
2014-Dec-14 15:33N 34°13' E 135°09'6 5.8
2014-Dec-14 14:33N 34°12' E 135°02'2 0.5
2014-Dec-14 10:33N 34°12' E 135°04'4 3.8
2014-Dec-14 09:33N 34°13' E 135°09'21 6.2
2014-Dec-14 06:10N 34°05' E 134°45'1014.4
2014-Dec-14 05:27N 34°09' E 134°57'1111.9
2014-Dec-14 04:34N 34°13' E 135°09'6 6.2
2014-Dec-14 03:33N 34°10' E 135°02'4 1.3
2014-Dec-14 00:14N 34°09' E 134°57'1014.8
2014-Dec-13 23:33N 34°13' E 135°08'3 2.7
2014-Dec-13 22:33N 34°12' E 135°05'16 4.6
2014-Dec-13 19:07N 34°06' E 134°47'813.3
2014-Dec-13 18:29N 34°09' E 134°56'1111.6
2014-Dec-13 17:33N 34°13' E 135°09'0 0.0
2014-Dec-13 16:33N 34°13' E 135°09'0 0.0
2014-Dec-13 15:33N 34°13' E 135°09'7 6.7
2014-Dec-13 14:33N 34°11' E 135°01'12 3.8
2014-Dec-13 11:33N 34°07' E 134°48'1514.9
2014-Dec-13 10:33N 34°12' E 135°05'3 3.5
2014-Dec-13 09:34N 34°13' E 135°09'20 6.0
2014-Dec-13 06:12N 34°06' E 134°46'1013.5
2014-Dec-13 05:26N 34°10' E 134°57'1011.4
2014-Dec-13 04:34N 34°13' E 135°09'6 5.9
2014-Dec-13 03:33N 34°11' E 135°02'7 2.3
2014-Dec-13 00:24N 34°08' E 134°54'1315.1
2014-Dec-12 23:33N 34°13' E 135°08'2 2.3
2014-Dec-12 22:33N 34°12' E 135°05'19 5.6
2014-Dec-12 19:11N 34°05' E 134°45'1014.3
2014-Dec-12 18:28N 34°09' E 134°56'1112.3
2014-Dec-12 17:33N 34°13' E 135°09'  

Dump ship's entire track history